createdAt,value
2023-03-06T00:00:35.477Z,76.30
2023-03-06T00:03:40.021Z,76.40
2023-03-06T00:06:43.269Z,76.50
2023-03-06T00:09:46.264Z,76.50
2023-03-06T00:12:49.733Z,76.50
2023-03-06T00:15:52.822Z,76.50
2023-03-06T00:18:57.537Z,76.60
2023-03-06T00:22:00.497Z,76.50
2023-03-06T00:25:03.481Z,76.50
2023-03-06T00:28:08.198Z,76.50
2023-03-06T00:31:11.297Z,76.60
2023-03-06T00:34:16.270Z,76.60
2023-03-06T00:37:19.254Z,77.20
2023-03-06T00:40:22.987Z,77.40
2023-03-06T00:43:26.127Z,77.60
2023-03-06T00:46:29.103Z,77.50
2023-03-06T00:49:33.532Z,77.80
2023-03-06T00:52:36.995Z,77.70
2023-03-06T00:55:40.162Z,77.60
2023-03-06T00:58:43.100Z,77.90
2023-03-06T01:01:46.400Z,77.80
2023-03-06T01:04:50.800Z,77.80
2023-03-06T01:07:53.922Z,77.90
2023-03-06T01:10:56.909Z,78.10
2023-03-06T01:14:00.008Z,78.30
2023-03-06T01:17:03.077Z,78.30
2023-03-06T01:20:10.021Z,78.50
2023-03-06T01:23:12.967Z,78.40
2023-03-06T01:26:16.351Z,78.40
2023-03-06T01:29:19.858Z,78.20
2023-03-06T01:32:23.158Z,78.40
2023-03-06T01:35:27.770Z,78.90
2023-03-06T01:38:30.814Z,79.00
2023-03-06T01:41:33.898Z,79.00
2023-03-06T01:44:36.887Z,78.90
2023-03-06T01:47:40.353Z,79.30
2023-03-06T01:50:45.270Z,79.50
2023-03-06T01:53:51.631Z,79.30
2023-03-06T01:56:58.327Z,79.20
2023-03-06T02:00:06.604Z,79.70
2023-03-06T02:03:12.519Z,79.90
2023-03-06T02:06:20.026Z,80.30
2023-03-06T02:09:23.123Z,80.40
2023-03-06T02:12:27.389Z,79.90
2023-03-06T02:15:31.756Z,80.00
2023-03-06T02:18:35.766Z,80.00
2023-03-06T02:21:40.176Z,80.00
2023-03-06T02:24:51.099Z,80.00
2023-03-06T02:27:55.598Z,79.90
2023-03-06T02:30:58.823Z,80.00
2023-03-06T02:34:04.125Z,80.20
2023-03-06T02:37:10.456Z,80.30
2023-03-06T02:40:16.175Z,80.20
2023-03-06T02:43:24.295Z,80.20
2023-03-06T02:46:27.350Z,80.00
2023-03-06T02:49:30.348Z,79.90
2023-03-06T02:52:33.483Z,79.70
2023-03-06T02:55:36.688Z,79.70
2023-03-06T02:58:41.358Z,79.60
2023-03-06T03:01:44.621Z,79.40
2023-03-06T03:04:49.154Z,79.30
2023-03-06T03:07:52.181Z,79.30
2023-03-06T03:10:56.339Z,79.30
2023-03-06T03:14:02.305Z,79.10
2023-03-06T03:17:05.841Z,79.00
2023-03-06T03:20:12.724Z,78.90
2023-03-06T03:23:15.742Z,78.80
2023-03-06T03:26:21.288Z,78.70
2023-03-06T03:29:25.744Z,78.50
2023-03-06T03:32:28.791Z,78.30
2023-03-06T03:35:31.822Z,78.20
2023-03-06T03:38:35.746Z,78.10
2023-03-06T03:41:41.058Z,78.20
2023-03-06T03:44:45.803Z,77.90
2023-03-06T03:47:48.812Z,77.90
2023-03-06T03:50:52.027Z,77.90
2023-03-06T03:53:58.056Z,77.70
2023-03-06T03:57:01.016Z,77.40
2023-03-06T04:00:07.889Z,77.50
2023-03-06T04:03:11.026Z,77.40
2023-03-06T04:06:14.822Z,77.30
2023-03-06T04:09:17.836Z,77.30
2023-03-06T04:12:20.868Z,77.20
2023-03-06T04:15:25.282Z,77.50
2023-03-06T04:18:28.455Z,77.50
2023-03-06T04:21:31.451Z,77.30
2023-03-06T04:24:34.620Z,77.20
2023-03-06T04:27:37.916Z,77.30
2023-03-06T04:30:42.433Z,77.40
2023-03-06T04:33:45.743Z,77.30
2023-03-06T04:36:48.989Z,77.20
2023-03-06T04:39:52.906Z,77.20
2023-03-06T04:42:56.521Z,76.90
2023-03-06T04:46:01.284Z,77.00
2023-03-06T04:49:04.891Z,77.00
2023-03-06T04:52:08.900Z,76.80
2023-03-06T04:55:15.130Z,76.90
2023-03-06T04:58:18.138Z,77.00
2023-03-06T05:01:22.507Z,77.00
2023-03-06T05:04:25.665Z,77.20
2023-03-06T05:07:28.601Z,77.30
2023-03-06T05:10:31.790Z,77.20
2023-03-06T05:13:35.017Z,77.10
2023-03-06T05:16:39.560Z,77.10
2023-03-06T05:19:42.636Z,77.20
2023-03-06T05:22:45.852Z,77.00
2023-03-06T05:25:49.032Z,77.10
2023-03-06T05:28:52.349Z,77.20
2023-03-06T05:31:56.700Z,77.20
2023-03-06T05:34:59.904Z,77.20
2023-03-06T05:38:02.941Z,77.10
2023-03-06T05:41:06.211Z,77.00
2023-03-06T05:44:09.530Z,76.90
2023-03-06T05:47:14.555Z,76.80
2023-03-06T05:50:18.164Z,77.00
2023-03-06T05:53:21.289Z,77.30
2023-03-06T05:56:24.363Z,77.40
2023-03-06T05:59:29.025Z,77.30
2023-03-06T06:02:33.375Z,77.20
2023-03-06T06:05:40.179Z,77.30
2023-03-06T06:08:43.827Z,77.20
2023-03-06T06:11:46.807Z,77.20
2023-03-06T06:14:49.846Z,77.20
2023-03-06T06:17:54.142Z,76.80
2023-03-06T06:20:57.204Z,76.80
2023-03-06T06:24:00.168Z,76.60
2023-03-06T06:27:04.021Z,76.70
2023-03-06T06:30:11.574Z,76.50
2023-03-06T06:33:18.875Z,76.60
2023-03-06T06:36:22.554Z,76.40
2023-03-06T06:39:25.840Z,76.30
2023-03-06T06:42:35.194Z,76.40
2023-03-06T06:45:42.824Z,76.30
2023-03-06T06:48:49.677Z,76.20
2023-03-06T06:51:52.630Z,76.30
2023-03-06T06:54:55.851Z,76.40
2023-03-06T06:57:58.914Z,76.20
2023-03-06T07:01:06.551Z,76.10
2023-03-06T07:04:12.522Z,76.40
2023-03-06T07:07:15.611Z,76.50
2023-03-06T07:10:20.721Z,76.20
2023-03-06T07:13:24.567Z,76.20
2023-03-06T07:16:27.804Z,76.30
2023-03-06T07:19:32.718Z,76.20
2023-03-06T07:22:49.918Z,76.40
2023-03-06T07:25:54.596Z,76.60
2023-03-06T07:28:58.171Z,76.60
2023-03-06T07:32:01.368Z,76.60
2023-03-06T07:35:19.694Z,76.50
2023-03-06T07:38:23.262Z,76.20
2023-03-06T07:41:26.248Z,76.20
2023-03-06T07:44:29.184Z,76.00
2023-03-06T07:47:32.269Z,75.80
2023-03-06T07:50:36.632Z,75.50
2023-03-06T07:53:39.637Z,75.50
2023-03-06T07:56:42.576Z,75.50
2023-03-06T07:59:45.630Z,75.30
2023-03-06T08:02:49.501Z,74.40
2023-03-06T08:05:53.895Z,74.60
2023-03-06T08:08:58.098Z,74.10
2023-03-06T08:12:01.049Z,73.90
2023-03-06T08:15:04.198Z,73.50
2023-03-06T08:18:07.437Z,73.60
2023-03-06T08:21:13.802Z,73.60
2023-03-06T08:24:18.513Z,73.40
2023-03-06T08:27:21.766Z,73.60
2023-03-06T08:30:25.134Z,73.70
2023-03-06T08:33:28.151Z,73.40
2023-03-06T08:36:32.617Z,72.70
2023-03-06T08:39:35.675Z,72.70
2023-03-06T08:42:38.722Z,72.60
2023-03-06T08:45:41.741Z,72.30
2023-03-06T08:48:44.792Z,71.90
2023-03-06T08:51:49.304Z,71.80
2023-03-06T08:54:52.389Z,72.20
2023-03-06T08:57:55.379Z,72.50
2023-03-06T09:00:59.166Z,72.50
2023-03-06T09:04:04.441Z,72.50
2023-03-06T09:07:09.050Z,71.80
2023-03-06T09:10:15.764Z,71.60
2023-03-06T09:13:18.788Z,71.70
2023-03-06T09:16:22.166Z,71.70
2023-03-06T09:19:25.231Z,71.60
2023-03-06T09:22:29.982Z,71.50
2023-03-06T09:25:32.928Z,71.10
2023-03-06T09:28:38.862Z,71.50
2023-03-06T09:31:41.882Z,71.40
2023-03-06T09:34:44.872Z,71.00
2023-03-06T09:37:49.186Z,70.10
2023-03-06T09:41:04.476Z,69.20
2023-03-06T09:44:14.515Z,69.60
2023-03-06T09:47:46.855Z,69.60
2023-03-06T09:50:55.852Z,69.50
2023-03-06T09:54:07.401Z,69.50
2023-03-06T09:57:19.558Z,69.50
2023-03-06T10:00:29.211Z,69.30
2023-03-06T10:03:39.380Z,69.60
2023-03-06T10:06:48.613Z,69.00
2023-03-06T10:09:57.980Z,68.60
2023-03-06T10:13:07.045Z,68.80
2023-03-06T10:16:23.095Z,69.20
2023-03-06T10:19:34.160Z,69.50
2023-03-06T10:22:46.094Z,69.90
2023-03-06T10:26:00.862Z,69.90
2023-03-06T10:29:23.218Z,71.00
2023-03-06T10:32:39.536Z,70.00
2023-03-06T10:35:52.175Z,69.90
2023-03-06T10:38:56.364Z,68.50
2023-03-06T10:42:01.272Z,68.90
2023-03-06T10:45:13.223Z,69.00
2023-03-06T10:48:20.579Z,69.60
2023-03-06T10:51:26.919Z,70.30
2023-03-06T10:54:31.472Z,71.60
2023-03-06T10:57:37.990Z,71.80
2023-03-06T11:00:40.930Z,72.20
2023-03-06T11:03:43.927Z,72.00
2023-03-06T11:06:49.179Z,71.50
2023-03-06T11:10:03.374Z,71.50
2023-03-06T11:13:22.702Z,71.50
2023-03-06T11:16:28.494Z,71.40
2023-03-06T11:19:32.691Z,70.90
2023-03-06T11:22:37.276Z,71.20
2023-03-06T11:25:44.249Z,71.10
2023-03-06T11:28:51.067Z,69.80
2023-03-06T11:31:57.424Z,69.20
2023-03-06T11:35:03.647Z,68.70
2023-03-06T11:38:12.925Z,69.40
2023-03-06T11:41:26.083Z,68.90
2023-03-06T11:44:42.979Z,68.90
2023-03-06T11:47:50.110Z,68.70
2023-03-06T11:50:54.479Z,69.30
2023-03-06T11:54:00.860Z,69.30
2023-03-06T11:57:07.915Z,68.40
2023-03-06T12:00:26.655Z,68.00
2023-03-06T12:04:09.301Z,68.20
2023-03-06T12:07:22.862Z,67.70
2023-03-06T12:10:31.058Z,67.70
2023-03-06T12:13:44.496Z,67.80
2023-03-06T12:16:59.694Z,67.30
2023-03-06T12:20:21.150Z,67.10
2023-03-06T12:23:37.344Z,66.50
2023-03-06T12:26:56.251Z,67.40
2023-03-06T12:30:16.405Z,67.00
2023-03-06T12:33:30.518Z,66.30
2023-03-06T12:36:42.521Z,66.10
2023-03-06T12:39:58.231Z,65.30
2023-03-06T12:43:20.804Z,64.40
2023-03-06T12:46:25.133Z,64.30
2023-03-06T12:49:33.177Z,64.40
2023-03-06T12:52:37.208Z,64.20
2023-03-06T12:55:43.435Z,63.90
2023-03-06T12:58:52.325Z,63.70
2023-03-06T13:02:15.862Z,63.30
2023-03-06T13:05:50.802Z,63.70
2023-03-06T13:09:23.620Z,63.50
2023-03-06T13:12:39.506Z,63.40
2023-03-06T13:15:44.116Z,63.20
2023-03-06T13:19:03.508Z,62.00
2023-03-06T13:22:16.487Z,61.10
2023-03-06T13:25:37.696Z,61.20
2023-03-06T13:28:49.978Z,60.40
2023-03-06T13:32:08.114Z,60.70
2023-03-06T13:35:47.011Z,59.30
2023-03-06T13:39:08.590Z,59.40
2023-03-06T13:42:27.682Z,59.10
2023-03-06T13:45:35.470Z,58.50
2023-03-06T13:48:46.586Z,58.60
2023-03-06T13:52:07.887Z,58.40
2023-03-06T13:55:23.903Z,58.50
2023-03-06T13:58:39.298Z,58.90
2023-03-06T14:01:53.852Z,57.90
2023-03-06T14:04:58.807Z,58.30
2023-03-06T14:08:11.100Z,58.20
2023-03-06T14:11:21.807Z,57.40
2023-03-06T14:14:39.399Z,58.20
2023-03-06T14:17:54.044Z,58.10
2023-03-06T14:21:00.119Z,58.40
2023-03-06T14:24:04.859Z,58.90
2023-03-06T14:27:18.166Z,58.00
2023-03-06T14:30:25.374Z,58.30
2023-03-06T14:33:33.382Z,57.60
2023-03-06T14:36:43.375Z,58.00
2023-03-06T14:39:46.712Z,56.80
2023-03-06T14:43:10.330Z,57.20
2023-03-06T14:46:21.483Z,56.70
2023-03-06T14:49:26.407Z,57.50
2023-03-06T14:52:29.643Z,58.00
2023-03-06T14:55:36.431Z,58.00
2023-03-06T14:58:51.273Z,58.40
2023-03-06T15:02:00.059Z,58.90
2023-03-06T15:05:07.438Z,59.00
2023-03-06T15:08:10.609Z,58.70
2023-03-06T15:11:14.117Z,58.70
2023-03-06T15:14:21.731Z,59.20
2023-03-06T15:17:26.662Z,59.00
2023-03-06T15:20:41.287Z,58.60
2023-03-06T15:23:46.019Z,58.20
2023-03-06T15:27:01.460Z,58.40
2023-03-06T15:30:25.389Z,58.60
2023-03-06T15:33:28.357Z,58.50
2023-03-06T15:36:34.802Z,58.20
2023-03-06T15:39:39.464Z,57.70
2023-03-06T15:42:43.773Z,56.70
2023-03-06T15:45:48.427Z,57.00
2023-03-06T15:48:55.811Z,56.40
2023-03-06T15:51:58.825Z,57.20
2023-03-06T15:55:01.815Z,57.10
2023-03-06T15:58:06.359Z,57.10
2023-03-06T16:01:16.635Z,57.30
2023-03-06T16:04:19.886Z,57.80
2023-03-06T16:07:22.999Z,57.70
2023-03-06T16:10:28.409Z,57.40
2023-03-06T16:13:31.660Z,57.20
2023-03-06T16:16:37.661Z,57.20
2023-03-06T16:19:40.679Z,57.80
2023-03-06T16:22:46.184Z,58.20
2023-03-06T16:25:50.241Z,58.50
2023-03-06T16:28:53.217Z,58.90
2023-03-06T16:32:00.739Z,59.10
2023-03-06T16:35:03.790Z,59.30
2023-03-06T16:38:07.062Z,59.50
2023-03-06T16:41:10.082Z,59.30
2023-03-06T16:44:13.178Z,59.40
2023-03-06T16:47:18.352Z,59.50
2023-03-06T16:50:24.561Z,59.70
2023-03-06T16:53:28.054Z,59.80
2023-03-06T16:56:31.149Z,60.10
2023-03-06T16:59:34.207Z,60.20
2023-03-06T17:02:39.088Z,59.90
2023-03-06T17:05:44.085Z,60.80
2023-03-06T17:08:48.588Z,62.10
2023-03-06T17:11:51.773Z,63.10
2023-03-06T17:14:54.759Z,64.10
2023-03-06T17:17:59.494Z,64.40
2023-03-06T17:21:02.719Z,65.10
2023-03-06T17:24:06.289Z,65.60
2023-03-06T17:27:09.614Z,66.00
2023-03-06T17:30:13.594Z,66.20
2023-03-06T17:33:17.965Z,66.40
2023-03-06T17:36:21.194Z,66.50
2023-03-06T17:39:25.350Z,66.70
2023-03-06T17:42:28.398Z,67.00
2023-03-06T17:45:33.670Z,67.20
2023-03-06T17:48:38.363Z,67.50
2023-03-06T17:51:41.418Z,67.50
2023-03-06T17:54:45.102Z,67.20
2023-03-06T17:57:48.045Z,67.40
2023-03-06T18:00:51.057Z,67.50
2023-03-06T18:03:55.558Z,68.00
2023-03-06T18:06:58.723Z,68.30
2023-03-06T18:10:01.640Z,68.40
2023-03-06T18:13:04.567Z,68.80
2023-03-06T18:16:09.153Z,69.20
2023-03-06T18:19:14.293Z,69.70
2023-03-06T18:22:17.289Z,69.90
2023-03-06T18:25:20.425Z,70.30
2023-03-06T18:28:23.529Z,70.70
2023-03-06T18:31:28.660Z,70.90
2023-03-06T18:34:34.410Z,71.60
2023-03-06T18:37:38.000Z,72.00
2023-03-06T18:40:42.430Z,71.90
2023-03-06T18:43:45.936Z,72.30
2023-03-06T18:46:50.239Z,72.30
2023-03-06T18:49:55.202Z,72.40
2023-03-06T18:52:58.291Z,72.50
2023-03-06T18:56:01.459Z,72.50
2023-03-06T18:59:05.678Z,72.70
2023-03-06T19:02:08.971Z,72.80
2023-03-06T19:05:13.509Z,73.00
2023-03-06T19:08:18.508Z,73.20
2023-03-06T19:11:21.514Z,73.20
2023-03-06T19:14:27.888Z,73.60
2023-03-06T19:17:31.518Z,73.60
2023-03-06T19:20:35.857Z,73.60
2023-03-06T19:23:39.508Z,73.80
2023-03-06T19:26:42.727Z,73.90
2023-03-06T19:29:45.716Z,73.80
2023-03-06T19:32:48.792Z,74.10
2023-03-06T19:35:53.357Z,74.10
2023-03-06T19:38:57.161Z,74.30
2023-03-06T19:42:00.180Z,74.40
2023-03-06T19:45:03.326Z,74.40
2023-03-06T19:48:10.163Z,74.50
2023-03-06T19:51:14.779Z,74.50
2023-03-06T19:54:23.146Z,74.60
2023-03-06T19:57:26.230Z,75.00
2023-03-06T20:00:29.760Z,75.00
2023-03-06T20:03:34.126Z,75.00
2023-03-06T20:06:38.913Z,75.00
2023-03-06T20:09:45.005Z,75.20
2023-03-06T20:12:47.975Z,75.20
2023-03-06T20:15:51.015Z,75.30
2023-03-06T20:18:54.156Z,75.30
2023-03-06T20:21:58.517Z,75.40
2023-03-06T20:25:01.955Z,75.50
2023-03-06T20:28:06.161Z,75.50
2023-03-06T20:31:10.140Z,75.50
2023-03-06T20:34:14.754Z,75.70
2023-03-06T20:37:19.367Z,75.70
2023-03-06T20:40:22.686Z,75.80
2023-03-06T20:43:25.862Z,76.00
2023-03-06T20:46:29.359Z,76.10
2023-03-06T20:49:32.470Z,76.20
2023-03-06T20:52:36.828Z,76.10
2023-03-06T20:55:39.857Z,76.20
2023-03-06T20:58:44.917Z,76.10
2023-03-06T21:01:48.118Z,76.10
2023-03-06T21:04:51.271Z,76.20
2023-03-06T21:07:55.597Z,76.20
2023-03-06T21:10:58.603Z,76.60
2023-03-06T21:14:02.139Z,76.70
2023-03-06T21:17:05.194Z,76.70
2023-03-06T21:20:10.520Z,76.70
2023-03-06T21:23:15.004Z,76.70
2023-03-06T21:26:20.691Z,76.70
2023-03-06T21:29:23.699Z,76.80
2023-03-06T21:32:26.754Z,77.30
2023-03-06T21:35:31.181Z,77.70
2023-03-06T21:38:35.830Z,77.90
2023-03-06T21:41:39.400Z,78.10
2023-03-06T21:44:42.417Z,78.00
2023-03-06T21:47:45.758Z,77.90
2023-03-06T21:50:48.745Z,77.80
2023-03-06T21:53:54.125Z,77.80
2023-03-06T21:56:57.565Z,77.70
2023-03-06T22:00:00.678Z,77.70
2023-03-06T22:03:04.694Z,77.60
2023-03-06T22:06:12.397Z,77.30
2023-03-06T22:09:19.014Z,77.40
2023-03-06T22:12:22.345Z,77.30
2023-03-06T22:15:25.393Z,77.20
2023-03-06T22:18:28.907Z,77.20
2023-03-06T22:21:32.070Z,77.20
2023-03-06T22:24:36.654Z,77.20
2023-03-06T22:27:39.712Z,77.20
2023-03-06T22:30:42.728Z,77.30
2023-03-06T22:33:46.183Z,77.40
2023-03-06T22:36:49.265Z,77.30
2023-03-06T22:39:53.696Z,77.50
2023-03-06T22:42:56.699Z,77.30
2023-03-06T22:46:03.074Z,77.30
2023-03-06T22:49:06.395Z,77.40
2023-03-06T22:52:09.399Z,77.30
2023-03-06T22:55:13.838Z,77.30
2023-03-06T22:58:16.821Z,77.40
2023-03-06T23:01:22.459Z,77.50
2023-03-06T23:04:25.764Z,77.60
2023-03-06T23:07:28.808Z,77.60
2023-03-06T23:10:37.226Z,77.60
2023-03-06T23:13:41.637Z,77.90
2023-03-06T23:16:44.768Z,77.90
2023-03-06T23:19:50.464Z,77.80
2023-03-06T23:22:53.444Z,78.10
2023-03-06T23:26:01.560Z,78.50
2023-03-06T23:29:05.446Z,78.50
2023-03-06T23:32:09.069Z,78.60
2023-03-06T23:35:14.405Z,78.80
2023-03-06T23:38:17.504Z,78.60
2023-03-06T23:41:22.924Z,78.50
2023-03-06T23:44:26.368Z,78.40
2023-03-06T23:47:33.133Z,78.40
2023-03-06T23:50:36.466Z,78.40
2023-03-06T23:53:39.890Z,78.70
2023-03-06T23:56:44.716Z,79.00
2023-03-06T23:59:48.042Z,79.00
